createdAt,value
2022-09-11T00:01:12.386Z,6.00
2022-09-11T00:03:39.004Z,6.73
2022-09-11T00:06:08.318Z,5.33
2022-09-11T00:08:35.257Z,5.10
2022-09-11T00:11:08.290Z,6.20
2022-09-11T00:13:36.821Z,6.07
2022-09-11T00:16:07.112Z,5.97
2022-09-11T00:18:38.160Z,8.00
2022-09-11T00:21:07.869Z,8.13
2022-09-11T00:23:34.863Z,7.53
2022-09-11T00:26:04.975Z,8.20
2022-09-11T00:28:31.638Z,8.00
2022-09-11T00:31:02.441Z,10.17
2022-09-11T00:33:30.043Z,11.50
2022-09-11T00:36:03.770Z,10.73
2022-09-11T00:38:32.942Z,11.03
2022-09-11T00:41:01.324Z,10.73
2022-09-11T00:43:30.496Z,10.00
2022-09-11T00:46:04.108Z,13.00
2022-09-11T00:48:34.293Z,11.87
2022-09-11T00:51:04.231Z,10.27
2022-09-11T00:53:35.111Z,11.20
2022-09-11T00:56:05.622Z,11.30
2022-09-11T00:58:37.882Z,11.10
2022-09-11T01:01:05.038Z,11.47
2022-09-11T01:03:35.036Z,10.83
2022-09-11T01:06:02.439Z,19.93
2022-09-11T01:08:29.017Z,11.63
2022-09-11T01:11:17.538Z,13.40
2022-09-11T01:13:56.779Z,11.23
2022-09-11T01:17:04.721Z,11.03
2022-09-11T01:20:20.987Z,11.77
2022-09-11T01:23:26.707Z,11.10
2022-09-11T01:26:05.157Z,13.10
2022-09-11T01:28:49.892Z,15.67
2022-09-11T01:31:29.675Z,13.60
2022-09-11T01:34:06.702Z,15.13
2022-09-11T01:36:40.904Z,16.83
2022-09-11T01:39:07.760Z,14.10
2022-09-11T01:42:00.124Z,15.70
2022-09-11T01:44:50.162Z,14.50
2022-09-11T01:47:18.170Z,17.80
2022-09-11T01:50:02.936Z,15.27
2022-09-11T01:52:36.158Z,15.97
2022-09-11T01:55:22.942Z,14.13
2022-09-11T01:58:03.374Z,15.50
2022-09-11T02:00:35.373Z,14.53
2022-09-11T02:03:15.205Z,15.40
2022-09-11T02:05:52.697Z,16.53
2022-09-11T02:08:31.995Z,12.80
2022-09-11T02:11:05.250Z,15.43
2022-09-11T02:13:53.542Z,14.37
2022-09-11T02:16:40.148Z,16.90
2022-09-11T02:19:11.305Z,16.10
2022-09-11T02:21:38.361Z,15.37
2022-09-11T02:24:05.266Z,15.87
2022-09-11T02:26:36.325Z,14.30
2022-09-11T02:29:03.106Z,15.47
2022-09-11T02:31:29.941Z,19.97
2022-09-11T02:33:57.777Z,17.03
2022-09-11T02:37:02.062Z,15.33
2022-09-11T02:39:31.362Z,18.20
2022-09-11T02:42:19.418Z,15.13
2022-09-11T02:45:17.896Z,17.90
2022-09-11T02:48:15.731Z,17.40
2022-09-11T02:50:45.060Z,16.63
2022-09-11T02:53:33.594Z,16.57
2022-09-11T02:56:03.627Z,16.20
2022-09-11T02:58:41.298Z,16.37
2022-09-11T03:01:09.083Z,17.50
2022-09-11T03:03:40.832Z,16.37
2022-09-11T03:06:12.120Z,15.90
2022-09-11T03:08:38.716Z,16.40
2022-09-11T03:11:05.414Z,16.90
2022-09-11T03:13:32.639Z,16.03
2022-09-11T03:16:01.389Z,17.00
2022-09-11T03:18:28.018Z,18.93
2022-09-11T03:20:56.546Z,20.87
2022-09-11T03:23:23.529Z,20.27
2022-09-11T03:25:50.221Z,22.30
2022-09-11T03:28:16.876Z,19.70
2022-09-11T03:30:43.479Z,20.10
2022-09-11T03:33:10.103Z,19.97
2022-09-11T03:35:36.804Z,18.80
2022-09-11T03:38:03.371Z,21.63
2022-09-11T03:40:29.985Z,21.47
2022-09-11T03:42:56.559Z,20.73
2022-09-11T03:45:23.202Z,22.37
2022-09-11T03:47:49.807Z,24.27
2022-09-11T03:50:16.506Z,19.60
2022-09-11T03:52:43.610Z,20.70
2022-09-11T03:55:10.466Z,21.27
2022-09-11T03:57:38.932Z,21.63
2022-09-11T04:00:06.639Z,18.97
2022-09-11T04:02:33.202Z,19.90
2022-09-11T04:04:59.778Z,23.87
2022-09-11T04:07:26.366Z,21.90
2022-09-11T04:09:52.943Z,20.97
2022-09-11T04:12:19.549Z,20.67
2022-09-11T04:14:46.173Z,23.10
2022-09-11T04:17:12.745Z,26.10
2022-09-11T04:19:39.360Z,21.47
2022-09-11T04:22:06.013Z,22.60
2022-09-11T04:24:32.656Z,18.67
2022-09-11T04:27:01.048Z,25.00
2022-09-11T04:29:28.427Z,22.40
2022-09-11T04:31:56.196Z,23.13
2022-09-11T04:34:22.828Z,22.30
2022-09-11T04:36:49.512Z,21.77
2022-09-11T04:39:16.727Z,21.67
2022-09-11T04:41:44.324Z,20.80
2022-09-11T04:44:11.077Z,23.50
2022-09-11T04:46:37.743Z,20.80
2022-09-11T04:49:04.390Z,20.70
2022-09-11T04:51:38.918Z,24.50
2022-09-11T04:54:06.340Z,20.37
2022-09-11T04:56:37.746Z,20.43
2022-09-11T04:59:13.548Z,27.27
2022-09-11T05:01:40.420Z,21.97
2022-09-11T05:04:08.369Z,26.23
2022-09-11T05:06:37.900Z,20.50
2022-09-11T05:09:08.541Z,22.83
2022-09-11T05:11:36.009Z,25.37
2022-09-11T05:14:02.867Z,21.30
2022-09-11T05:16:30.647Z,31.10
2022-09-11T05:18:59.400Z,28.50
2022-09-11T05:21:27.932Z,34.60
2022-09-11T05:23:57.705Z,34.57
2022-09-11T05:26:32.682Z,27.47
2022-09-11T05:29:02.367Z,34.90
2022-09-11T05:31:29.166Z,38.30
2022-09-11T05:33:56.859Z,28.17
2022-09-11T05:36:24.432Z,32.20
2022-09-11T05:38:52.688Z,30.03
2022-09-11T05:41:19.806Z,27.03
2022-09-11T05:43:46.481Z,31.10
2022-09-11T05:46:17.942Z,30.60
2022-09-11T05:48:45.089Z,28.30
2022-09-11T05:51:17.037Z,30.53
2022-09-11T05:53:44.305Z,25.10
2022-09-11T05:56:15.804Z,27.40
2022-09-11T05:58:43.708Z,28.73
2022-09-11T06:01:19.194Z,27.13
2022-09-11T06:03:49.379Z,27.40
2022-09-11T06:06:17.810Z,28.17
2022-09-11T06:08:45.271Z,29.47
2022-09-11T06:11:13.799Z,30.80
2022-09-11T06:13:42.842Z,32.47
2022-09-11T06:16:18.109Z,28.60
2022-09-11T06:18:49.057Z,30.50
2022-09-11T06:21:22.354Z,31.23
2022-09-11T06:23:50.857Z,30.50
2022-09-11T06:26:21.135Z,28.70
2022-09-11T06:28:48.532Z,29.37
2022-09-11T06:31:17.252Z,26.20
2022-09-11T06:33:44.870Z,26.57
2022-09-11T06:36:17.346Z,24.83
2022-09-11T06:38:44.652Z,25.93
2022-09-11T06:41:14.753Z,26.33
2022-09-11T06:43:42.635Z,26.17
2022-09-11T06:46:15.650Z,26.83
2022-09-11T06:48:44.046Z,28.87
2022-09-11T06:51:15.321Z,26.00
2022-09-11T06:53:42.931Z,23.00
2022-09-11T06:56:14.625Z,23.20
2022-09-11T06:58:41.521Z,22.53
2022-09-11T07:01:13.506Z,23.83
2022-09-11T07:03:46.054Z,20.10
2022-09-11T07:06:14.010Z,23.17
2022-09-11T07:08:41.091Z,22.07
2022-09-11T07:11:08.933Z,21.97
2022-09-11T07:13:38.086Z,20.17
2022-09-11T07:16:07.733Z,24.57
2022-09-11T07:18:39.456Z,21.43
2022-09-11T07:21:12.112Z,23.60
2022-09-11T07:23:42.631Z,20.40
2022-09-11T07:26:11.846Z,18.63
2022-09-11T07:28:39.569Z,20.93
2022-09-11T07:31:17.455Z,20.40
2022-09-11T07:33:48.869Z,20.90
2022-09-11T07:36:21.088Z,20.37
2022-09-11T07:38:49.003Z,19.80
2022-09-11T07:41:17.929Z,24.83
2022-09-11T07:43:50.819Z,20.83
2022-09-11T07:46:17.785Z,24.90
2022-09-11T07:48:44.780Z,31.83
2022-09-11T07:51:14.004Z,30.20
2022-09-11T07:53:49.982Z,32.10
2022-09-11T07:56:19.654Z,32.20
2022-09-11T07:58:47.037Z,29.37
2022-09-11T08:01:19.672Z,32.43
2022-09-11T08:03:46.655Z,27.67
2022-09-11T08:06:22.062Z,24.50
2022-09-11T08:08:57.059Z,26.53
2022-09-11T08:11:24.476Z,27.47
2022-09-11T08:13:52.891Z,28.47
2022-09-11T08:16:21.103Z,26.90
2022-09-11T08:18:48.265Z,28.40
2022-09-11T08:21:15.878Z,28.73
2022-09-11T08:23:44.197Z,23.63
2022-09-11T08:26:13.854Z,24.23
2022-09-11T08:28:44.921Z,23.90
2022-09-11T08:31:12.998Z,23.07
2022-09-11T08:33:39.812Z,21.97
2022-09-11T08:36:09.648Z,20.40
2022-09-11T08:38:37.387Z,20.27
2022-09-11T08:41:11.086Z,21.30
2022-09-11T08:43:45.967Z,21.77
2022-09-11T08:46:13.052Z,23.87
2022-09-11T08:48:56.930Z,19.50
2022-09-11T08:51:25.921Z,18.47
2022-09-11T08:53:54.418Z,18.10
2022-09-11T08:56:23.588Z,21.20
2022-09-11T08:58:50.908Z,18.97
2022-09-11T09:01:38.647Z,16.37
2022-09-11T09:04:35.315Z,20.10
2022-09-11T09:07:38.448Z,16.57
2022-09-11T09:10:43.597Z,17.60
2022-09-11T09:13:51.729Z,15.10
2022-09-11T09:16:43.939Z,16.37
2022-09-11T09:19:17.229Z,13.07
2022-09-11T09:21:59.173Z,12.33
2022-09-11T09:24:32.001Z,15.00
2022-09-11T09:26:59.193Z,12.23
2022-09-11T09:29:36.837Z,12.33
2022-09-11T09:32:13.904Z,11.93
2022-09-11T09:34:43.429Z,12.77
2022-09-11T09:37:23.151Z,13.67
2022-09-11T09:39:51.102Z,12.20
2022-09-11T09:42:29.693Z,12.10
2022-09-11T09:45:22.864Z,12.53
2022-09-11T09:47:49.684Z,11.40
2022-09-11T09:50:45.716Z,14.87
2022-09-11T09:53:33.692Z,10.30
2022-09-11T09:56:00.926Z,13.83
2022-09-11T09:58:33.054Z,10.53
2022-09-11T10:00:59.790Z,10.40
2022-09-11T10:03:26.889Z,11.37
2022-09-11T10:05:55.271Z,10.50
2022-09-11T10:08:26.445Z,9.50
2022-09-11T10:10:58.737Z,9.93
2022-09-11T10:13:28.795Z,9.17
2022-09-11T10:16:01.276Z,10.10
2022-09-11T10:18:32.251Z,8.53
2022-09-11T10:21:37.257Z,9.03
2022-09-11T10:24:20.409Z,12.30
2022-09-11T10:26:50.820Z,9.13
2022-09-11T10:29:24.132Z,10.00
2022-09-11T10:32:02.278Z,8.33
2022-09-11T10:34:36.534Z,8.07
2022-09-11T10:37:25.255Z,8.67
2022-09-11T10:39:53.968Z,12.27
2022-09-11T10:42:27.564Z,10.60
2022-09-11T10:45:01.946Z,10.30
2022-09-11T10:47:31.876Z,10.33
2022-09-11T10:50:17.202Z,10.60
2022-09-11T10:53:19.972Z,10.20
2022-09-11T10:55:57.108Z,11.67
2022-09-11T10:58:29.252Z,9.40
2022-09-11T11:00:56.562Z,11.50
2022-09-11T11:03:28.086Z,8.90
2022-09-11T11:06:26.027Z,10.20
2022-09-11T11:08:55.191Z,7.77
2022-09-11T11:11:22.233Z,8.57
2022-09-11T11:14:04.584Z,7.40
2022-09-11T11:16:45.526Z,6.80
2022-09-11T11:19:23.789Z,6.80
2022-09-11T11:22:08.394Z,7.80
2022-09-11T11:24:35.014Z,7.00
2022-09-11T11:27:16.365Z,7.50
2022-09-11T11:30:17.255Z,8.03
2022-09-11T11:33:01.157Z,8.70
2022-09-11T11:35:41.749Z,8.10
2022-09-11T11:38:20.124Z,8.37
2022-09-11T11:41:03.056Z,9.63
2022-09-11T11:43:34.055Z,8.50
2022-09-11T11:46:30.157Z,8.73
2022-09-11T11:49:09.937Z,8.47
2022-09-11T11:51:48.838Z,7.90
2022-09-11T11:54:41.579Z,10.30
2022-09-11T11:57:20.574Z,7.53
2022-09-11T11:59:58.121Z,6.87
2022-09-11T12:03:07.521Z,7.27
2022-09-11T12:05:34.938Z,6.57
2022-09-11T12:08:02.039Z,5.63
2022-09-11T12:10:38.460Z,7.77
2022-09-11T12:13:17.343Z,8.13
2022-09-11T12:16:20.031Z,6.90
2022-09-11T12:19:20.700Z,9.80
2022-09-11T12:21:53.263Z,6.17
2022-09-11T12:24:49.837Z,7.53
2022-09-11T12:27:34.472Z,7.20
2022-09-11T12:30:27.299Z,6.90
2022-09-11T12:32:55.803Z,7.00
2022-09-11T12:35:34.807Z,8.20
2022-09-11T12:38:14.779Z,8.50
2022-09-11T12:40:59.777Z,7.83
2022-09-11T12:43:35.305Z,6.73
2022-09-11T12:46:21.568Z,6.13
2022-09-11T12:49:17.813Z,8.07
2022-09-11T12:51:44.967Z,7.47
2022-09-11T12:54:21.923Z,7.43
2022-09-11T12:57:03.424Z,6.23
2022-09-11T12:59:34.673Z,6.93
2022-09-11T13:02:03.596Z,7.87
2022-09-11T13:04:31.720Z,7.07
2022-09-11T13:07:03.925Z,8.60
2022-09-11T13:09:41.481Z,6.97
2022-09-11T13:12:26.306Z,6.97
2022-09-11T13:14:57.120Z,7.43
2022-09-11T13:17:32.950Z,8.60
2022-09-11T13:20:07.203Z,6.77
2022-09-11T13:22:35.130Z,8.57
2022-09-11T13:25:11.831Z,7.37
2022-09-11T13:27:50.790Z,6.87
2022-09-11T13:30:21.560Z,8.43
2022-09-11T13:33:03.365Z,7.33
2022-09-11T13:35:30.147Z,8.10
2022-09-11T13:38:30.514Z,8.57
2022-09-11T13:41:07.416Z,8.40
2022-09-11T13:43:39.639Z,9.10
2022-09-11T13:46:15.657Z,8.30
2022-09-11T13:48:46.810Z,7.77
2022-09-11T13:51:15.146Z,9.03
2022-09-11T13:53:45.313Z,7.43
2022-09-11T13:56:57.248Z,8.87
2022-09-11T13:59:44.939Z,9.83
2022-09-11T14:02:51.137Z,8.93
2022-09-11T14:05:24.335Z,8.20
2022-09-11T14:08:00.014Z,8.17
2022-09-11T14:10:35.691Z,7.17
2022-09-11T14:13:33.045Z,7.10
2022-09-11T14:16:06.383Z,7.50
2022-09-11T14:19:00.085Z,6.60
2022-09-11T14:21:33.232Z,6.80
2022-09-11T14:24:00.432Z,5.60
2022-09-11T14:26:35.780Z,7.33
2022-09-11T14:29:24.741Z,6.63
2022-09-11T14:31:52.953Z,9.70
2022-09-11T14:34:20.773Z,6.63
2022-09-11T14:36:55.799Z,5.73
2022-09-11T14:39:28.140Z,6.77
2022-09-11T14:41:55.663Z,5.57
2022-09-11T14:44:23.897Z,8.03
2022-09-11T14:46:50.533Z,7.80
2022-09-11T14:49:17.143Z,9.10
2022-09-11T14:51:47.758Z,6.43
2022-09-11T14:54:15.698Z,6.33
2022-09-11T14:56:44.677Z,6.20
2022-09-11T14:59:12.409Z,8.50
2022-09-11T15:01:39.124Z,5.77
2022-09-11T15:04:05.743Z,6.70
2022-09-11T15:06:32.633Z,5.40
2022-09-11T15:09:01.447Z,6.00
2022-09-11T15:11:28.105Z,6.87
2022-09-11T15:14:14.460Z,8.17
2022-09-11T15:16:43.085Z,6.20
2022-09-11T15:19:10.261Z,6.37
2022-09-11T15:21:37.856Z,6.10
2022-09-11T15:24:05.819Z,5.93
2022-09-11T15:26:33.897Z,6.27
2022-09-11T15:29:00.909Z,6.70
2022-09-11T15:31:30.931Z,5.97
2022-09-11T15:33:57.550Z,6.43
2022-09-11T15:36:26.409Z,6.50
2022-09-11T15:38:54.112Z,6.30
2022-09-11T15:41:21.988Z,16.03
2022-09-11T15:43:50.400Z,5.43
2022-09-11T15:46:19.340Z,6.10
2022-09-11T15:48:46.302Z,6.13
2022-09-11T15:51:19.477Z,5.53
2022-09-11T15:53:46.606Z,6.10
2022-09-11T15:56:16.115Z,5.63
2022-09-11T15:58:45.012Z,5.90
2022-09-11T16:01:19.721Z,6.50
2022-09-11T16:03:51.338Z,7.23
2022-09-11T16:06:19.130Z,6.30
2022-09-11T16:08:45.776Z,5.67
2022-09-11T16:11:13.308Z,6.40
2022-09-11T16:13:40.491Z,5.70
2022-09-11T16:16:08.356Z,6.10
2022-09-11T16:18:38.381Z,5.37
2022-09-11T16:21:06.445Z,8.90
2022-09-11T16:23:35.928Z,5.70
2022-09-11T16:26:05.553Z,9.33
2022-09-11T16:28:37.212Z,5.63
2022-09-11T16:31:04.923Z,5.77
2022-09-11T16:33:32.730Z,5.30
2022-09-11T16:36:01.574Z,6.80
2022-09-11T16:38:29.188Z,5.70
2022-09-11T16:41:25.426Z,6.17
2022-09-11T16:43:53.399Z,8.03
2022-09-11T16:46:22.922Z,5.50
2022-09-11T16:48:54.408Z,5.90
2022-09-11T16:51:23.313Z,8.80
2022-09-11T16:53:50.635Z,5.77
2022-09-11T16:56:20.017Z,5.37
2022-09-11T16:58:47.087Z,5.53
2022-09-11T17:01:19.342Z,6.13
2022-09-11T17:03:48.416Z,6.37
2022-09-11T17:06:16.666Z,6.90
2022-09-11T17:08:44.627Z,5.53
2022-09-11T17:11:14.417Z,5.40
2022-09-11T17:13:42.712Z,5.80
2022-09-11T17:16:16.188Z,6.03
2022-09-11T17:18:56.295Z,6.53
2022-09-11T17:21:24.413Z,5.63
2022-09-11T17:23:52.723Z,5.40
2022-09-11T17:26:19.732Z,5.53
2022-09-11T17:28:48.093Z,6.00
2022-09-11T17:31:16.824Z,7.80
2022-09-11T17:33:45.335Z,7.97
2022-09-11T17:36:14.089Z,7.10
2022-09-11T17:38:41.097Z,7.97
2022-09-11T17:41:09.331Z,7.87
2022-09-11T17:43:37.750Z,7.40
2022-09-11T17:46:13.008Z,7.40
2022-09-11T17:48:40.051Z,7.70
2022-09-11T17:51:16.437Z,7.67
2022-09-11T17:53:46.423Z,7.33
2022-09-11T17:56:16.489Z,6.43
2022-09-11T17:58:45.052Z,7.27
2022-09-11T18:01:16.735Z,6.73
2022-09-11T18:03:44.325Z,7.57
2022-09-11T18:06:22.084Z,8.63
2022-09-11T18:08:48.801Z,8.63
2022-09-11T18:11:15.649Z,8.33
2022-09-11T18:13:42.758Z,6.77
2022-09-11T18:16:11.684Z,8.90
2022-09-11T18:18:42.766Z,8.60
2022-09-11T18:21:11.038Z,8.70
2022-09-11T18:23:44.816Z,9.67
2022-09-11T18:26:25.707Z,7.63
2022-09-11T18:28:59.912Z,8.10
2022-09-11T18:31:30.170Z,9.40
2022-09-11T18:34:00.012Z,8.30
2022-09-11T18:36:28.323Z,7.80
2022-09-11T18:38:57.478Z,8.70
2022-09-11T18:41:24.524Z,9.50
2022-09-11T18:43:55.145Z,8.60
2022-09-11T18:46:22.191Z,9.77
2022-09-11T18:48:50.267Z,7.73
2022-09-11T18:51:17.822Z,9.50
2022-09-11T18:53:48.466Z,11.23
2022-09-11T18:56:15.106Z,9.87
2022-09-11T18:58:41.771Z,8.17
2022-09-11T19:01:17.555Z,8.50
2022-09-11T19:03:44.807Z,7.93
2022-09-11T19:06:16.897Z,9.40
2022-09-11T19:08:46.584Z,9.70
2022-09-11T19:11:18.379Z,11.23
2022-09-11T19:13:47.119Z,9.50
2022-09-11T19:16:14.555Z,9.70
2022-09-11T19:18:41.383Z,8.77
2022-09-11T19:21:12.818Z,8.10
2022-09-11T19:23:41.549Z,12.67
2022-09-11T19:26:15.782Z,7.77
2022-09-11T19:28:43.855Z,8.17
2022-09-11T19:31:13.053Z,11.50
2022-09-11T19:33:40.728Z,8.10
2022-09-11T19:36:20.544Z,8.30
2022-09-11T19:38:49.588Z,7.80
2022-09-11T19:41:18.476Z,8.00
2022-09-11T19:43:45.573Z,8.80
2022-09-11T19:46:16.111Z,9.10
2022-09-11T19:48:44.197Z,7.93
2022-09-11T19:51:16.437Z,9.80
2022-09-11T19:53:43.228Z,7.77
2022-09-11T19:56:11.561Z,8.30
2022-09-11T19:58:38.767Z,10.70
2022-09-11T20:01:17.216Z,10.30
2022-09-11T20:03:46.004Z,12.33
2022-09-11T20:06:14.640Z,8.63
2022-09-11T20:08:43.481Z,9.17
2022-09-11T20:11:13.359Z,9.17
2022-09-11T20:13:40.034Z,10.10
2022-09-11T20:16:12.506Z,8.37
2022-09-11T20:18:39.190Z,9.23
2022-09-11T20:21:08.467Z,8.83
2022-09-11T20:23:36.145Z,11.53
2022-09-11T20:26:18.611Z,10.40
2022-09-11T20:28:47.096Z,10.30
2022-09-11T20:31:27.413Z,9.20
2022-09-11T20:33:54.205Z,10.77
2022-09-11T20:36:20.985Z,7.83
2022-09-11T20:38:52.190Z,9.20
2022-09-11T20:41:20.411Z,9.80
2022-09-11T20:43:47.255Z,9.53
2022-09-11T20:46:13.879Z,11.00
2022-09-11T20:48:40.921Z,11.90
2022-09-11T20:51:10.140Z,10.30
2022-09-11T20:53:38.715Z,10.27
2022-09-11T20:56:08.042Z,9.40
2022-09-11T20:58:35.718Z,11.13
2022-09-11T21:01:02.444Z,10.30
2022-09-11T21:03:29.788Z,10.00
2022-09-11T21:05:56.839Z,10.20
2022-09-11T21:08:25.458Z,9.67
2022-09-11T21:10:52.325Z,11.73
2022-09-11T21:13:19.018Z,9.27
2022-09-11T21:15:47.045Z,9.60
2022-09-11T21:18:14.331Z,10.10
2022-09-11T21:20:41.111Z,8.50
2022-09-11T21:23:07.740Z,9.00
2022-09-11T21:25:40.345Z,8.80
2022-09-11T21:28:06.973Z,8.67
2022-09-11T21:30:33.617Z,9.10
2022-09-11T21:33:00.339Z,9.13
2022-09-11T21:35:26.917Z,9.70
2022-09-11T21:37:53.464Z,12.03
2022-09-11T21:40:20.113Z,8.77
2022-09-11T21:42:46.696Z,10.10
2022-09-11T21:45:14.029Z,10.73
2022-09-11T21:47:40.687Z,13.50
2022-09-11T21:50:08.085Z,12.13
2022-09-11T21:52:34.782Z,10.20
2022-09-11T21:55:01.413Z,8.83
2022-09-11T21:57:28.832Z,9.57
2022-09-11T21:59:56.831Z,16.13
2022-09-11T22:02:24.946Z,12.53
2022-09-11T22:04:52.580Z,11.50
2022-09-11T22:07:19.969Z,11.27
2022-09-11T22:09:49.767Z,11.27
2022-09-11T22:12:16.423Z,9.57
2022-09-11T22:14:46.618Z,10.13
2022-09-11T22:17:13.499Z,13.63
2022-09-11T22:19:43.597Z,8.10
2022-09-11T22:22:10.229Z,9.20
2022-09-11T22:24:38.553Z,11.60
2022-09-11T22:27:06.585Z,11.10
2022-09-11T22:29:33.478Z,8.73
2022-09-11T22:32:00.085Z,7.77
2022-09-11T22:34:26.789Z,15.97
2022-09-11T22:36:53.349Z,9.67
2022-09-11T22:39:19.940Z,9.70
2022-09-11T22:41:46.588Z,14.50
2022-09-11T22:44:13.225Z,10.17
2022-09-11T22:46:39.919Z,10.60
2022-09-11T22:49:06.475Z,11.23
2022-09-11T22:51:33.953Z,13.27
2022-09-11T22:54:00.666Z,12.40
2022-09-11T22:56:27.266Z,10.10
2022-09-11T22:58:53.987Z,9.27
2022-09-11T23:01:22.741Z,13.07
2022-09-11T23:03:50.804Z,11.00
2022-09-11T23:06:36.492Z,14.97
2022-09-11T23:09:05.411Z,12.13
2022-09-11T23:11:32.514Z,12.47
2022-09-11T23:13:59.240Z,11.27
2022-09-11T23:16:28.782Z,14.40
2022-09-11T23:18:57.848Z,13.57
2022-09-11T23:21:25.227Z,14.63
2022-09-11T23:23:54.706Z,13.17
2022-09-11T23:26:22.666Z,12.83
2022-09-11T23:28:49.600Z,13.37
2022-09-11T23:31:21.751Z,11.00
2022-09-11T23:33:48.604Z,14.30
2022-09-11T23:36:17.281Z,12.27
2022-09-11T23:38:45.003Z,13.50
2022-09-11T23:41:11.849Z,11.70
2022-09-11T23:43:38.543Z,11.87
2022-09-11T23:46:05.590Z,14.43
2022-09-11T23:48:32.157Z,12.53
2022-09-11T23:51:01.059Z,11.73
2022-09-11T23:53:28.979Z,15.43
2022-09-11T23:55:56.387Z,14.50
2022-09-11T23:58:23.345Z,12.60
